Time;durP1;ratioP1;P1;durP2;ratioP2;P2;SDS_P1;SDS_P2;PMS_P1;PMS_P2;Temp;Humidity;BMP_temperature;BMP_pressure;BME280_temperature;BME280_humidity;BME280_pressure;Samples;Min_cycle;Max_cycle;Signal;HPM_P1;HPM_P2
2022/01/09 00:00:30;;;;;;;15.68;13.02;;;4.30;99.90;;;;;;5118702;27;20054;-58
2022/01/09 00:02:57;;;;;;;14.82;13.20;;;4.30;99.90;;;;;;5122570;27;20589;-58
2022/01/09 00:05:24;;;;;;;15.73;13.10;;;4.30;99.90;;;;;;5124783;27;20060;-59
2022/01/09 00:07:50;;;;;;;16.27;14.05;;;4.20;99.90;;;;;;5127086;27;20051;-57
2022/01/09 00:10:17;;;;;;;15.18;13.40;;;4.20;99.90;;;;;;5122374;27;20043;-58
2022/01/09 00:12:43;;;;;;;15.55;13.90;;;4.30;99.90;;;;;;5110201;27;20122;-58
2022/01/09 00:15:10;;;;;;;14.88;13.27;;;4.30;99.90;;;;;;5123498;27;20479;-59
2022/01/09 00:17:36;;;;;;;15.18;13.10;;;4.30;99.90;;;;;;5125893;27;20043;-58
2022/01/09 00:20:04;;;;;;;15.85;13.95;;;4.20;99.90;;;;;;5099817;27;20421;-59
2022/01/09 00:22:39;;;;;;;16.02;13.60;;;4.30;99.90;;;;;;5104377;27;20047;-57
2022/01/09 00:25:06;;;;;;;16.80;13.65;;;4.30;99.90;;;;;;5128509;27;20371;-58
2022/01/09 00:27:32;;;;;;;16.35;14.27;;;4.20;99.90;;;;;;5119988;27;20122;-59
2022/01/09 00:29:58;;;;;;;16.02;13.10;;;4.20;99.90;;;;;;5101578;27;20044;-58
2022/01/09 00:32:24;;;;;;;16.75;14.10;;;4.30;99.90;;;;;;5124153;27;20052;-59
2022/01/09 00:34:50;;;;;;;15.02;13.43;;;4.20;99.90;;;;;;5121725;27;20373;-58
2022/01/09 00:37:16;;;;;;;15.70;13.68;;;4.20;99.90;;;;;;5107656;27;20116;-57
2022/01/09 00:39:42;;;;;;;15.75;13.48;;;4.20;99.90;;;;;;5120873;27;20055;-58
2022/01/09 00:42:07;;;;;;;17.13;14.32;;;4.20;99.90;;;;;;5124403;27;20051;-58
2022/01/09 00:44:33;;;;;;;15.82;13.20;;;4.20;99.90;;;;;;5124534;27;20046;-59
2022/01/09 00:47:00;;;;;;;16.23;14.00;;;4.20;99.90;;;;;;5122580;27;20058;-57
2022/01/09 00:49:27;;;;;;;15.27;13.10;;;4.20;99.90;;;;;;5087079;27;20054;-59
2022/01/09 00:51:53;;;;;;;15.90;14.13;;;4.20;99.90;;;;;;5120733;27;20124;-58
2022/01/09 00:54:19;;;;;;;15.82;14.13;;;4.20;99.90;;;;;;5092454;27;20089;-58
2022/01/09 00:56:45;;;;;;;15.30;13.60;;;4.20;99.90;;;;;;5107347;27;20043;-58
2022/01/09 00:59:10;;;;;;;15.60;13.60;;;4.20;99.90;;;;;;5087609;27;20140;-58
2022/01/09 01:01:36;;;;;;;17.45;13.60;;;4.20;99.90;;;;;;5120427;27;20126;-58
2022/01/09 01:04:02;;;;;;;16.35;13.93;;;4.20;99.90;;;;;;5120230;27;20471;-58
2022/01/09 01:06:28;;;;;;;16.48;14.25;;;4.20;99.90;;;;;;5092300;27;20135;-59
2022/01/09 01:08:53;;;;;;;15.75;13.32;;;4.20;99.90;;;;;;5100003;27;20063;-59
2022/01/09 01:11:20;;;;;;;16.35;13.70;;;4.20;99.90;;;;;;5107806;27;20110;-58
2022/01/09 01:13:46;;;;;;;16.80;13.38;;;4.20;99.90;;;;;;5122466;27;20055;-56
2022/01/09 01:16:12;;;;;;;14.82;12.48;;;4.30;99.90;;;;;;5128557;27;20035;-59
2022/01/09 01:18:38;;;;;;;16.17;13.27;;;4.20;99.90;;;;;;5124187;27;20070;-58
2022/01/09 01:21:04;;;;;;;17.38;14.35;;;4.20;99.90;;;;;;5122110;27;20044;-58
2022/01/09 01:23:30;;;;;;;16.52;14.20;;;4.20;99.90;;;;;;5128620;27;20043;-59
2022/01/09 01:26:00;;;;;;;19.52;14.63;;;4.20;99.90;;;;;;5095491;27;20062;-58
2022/01/09 01:28:26;;;;;;;17.10;13.52;;;4.20;99.90;;;;;;5119818;27;20034;-59
2022/01/09 01:30:52;;;;;;;16.98;14.55;;;4.20;99.90;;;;;;5121330;27;20038;-58
2022/01/09 01:33:18;;;;;;;17.55;13.95;;;4.30;99.90;;;;;;5123166;27;20059;-58
2022/01/09 01:35:44;;;;;;;17.40;14.00;;;4.30;99.90;;;;;;5115520;27;20031;-57
2022/01/09 01:38:10;;;;;;;17.50;14.25;;;4.30;99.90;;;;;;5124048;27;20871;-58
2022/01/09 01:40:35;;;;;;;16.48;13.98;;;4.30;99.90;;;;;;5122100;27;20059;-57
2022/01/09 01:43:02;;;;;;;15.77;13.95;;;4.20;99.90;;;;;;5107913;27;20076;-57
2022/01/09 01:45:28;;;;;;;18.10;14.65;;;4.20;99.90;;;;;;5123207;27;20443;-58
2022/01/09 01:47:53;;;;;;;17.02;14.88;;;4.20;99.90;;;;;;5120204;27;20049;-59
2022/01/09 01:50:20;;;;;;;20.13;15.38;;;4.30;99.90;;;;;;5118004;27;20042;-58
2022/01/09 01:52:50;;;;;;;19.05;14.68;;;4.30;99.90;;;;;;5124097;27;20043;-57
2022/01/09 01:55:16;;;;;;;17.98;14.10;;;4.30;99.90;;;;;;5125082;27;20573;-58
2022/01/09 01:57:43;;;;;;;22.50;14.73;;;4.30;99.90;;;;;;5119322;27;20499;-59
2022/01/09 02:00:12;;;;;;;19.38;15.23;;;4.30;99.90;;;;;;5108853;27;20055;-59
2022/01/09 02:02:39;;;;;;;20.92;15.10;;;4.30;99.90;;;;;;5119398;27;20055;-59
2022/01/09 02:05:06;;;;;;;20.83;16.30;;;4.30;99.90;;;;;;5102383;27;20043;-58
2022/01/09 02:07:32;;;;;;;18.70;14.90;;;4.30;99.90;;;;;;5120250;27;20045;-59
2022/01/09 02:09:58;;;;;;;20.25;15.60;;;4.30;99.90;;;;;;5118419;27;20108;-56
2022/01/09 02:12:25;;;;;;;20.10;15.38;;;4.30;99.90;;;;;;5122976;27;20038;-59
2022/01/09 02:14:50;;;;;;;19.23;15.25;;;4.30;99.90;;;;;;5101619;27;20047;-58
2022/01/09 02:17:18;;;;;;;19.90;15.10;;;4.30;99.90;;;;;;5105488;27;20047;-59
2022/01/09 02:19:54;;;;;;;19.52;15.15;;;4.30;99.90;;;;;;5107997;27;20853;-58
2022/01/09 02:22:22;;;;;;;18.77;14.70;;;4.30;99.90;;;;;;5120683;27;20270;-58
2022/01/09 02:24:49;;;;;;;20.23;14.73;;;4.30;99.90;;;;;;5115905;27;20130;-58
2022/01/09 02:27:16;;;;;;;20.10;14.68;;;4.30;99.90;;;;;;5103100;27;20039;-58
2022/01/09 02:29:46;;;;;;;20.10;14.70;;;4.30;99.90;;;;;;5106576;27;20416;-59
2022/01/09 02:32:12;;;;;;;20.63;14.60;;;4.30;99.90;;;;;;5120635;27;20050;-56
2022/01/09 02:34:38;;;;;;;19.08;14.80;;;4.40;99.90;;;;;;5123847;27;20055;-59
2022/01/09 02:37:04;;;;;;;20.75;15.27;;;4.30;99.90;;;;;;5121160;27;20098;-59
2022/01/09 02:39:30;;;;;;;19.27;14.95;;;4.40;99.90;;;;;;5119386;27;20113;-58
2022/01/09 02:41:56;;;;;;;19.95;14.98;;;4.40;99.90;;;;;;5100155;27;20047;-59
2022/01/09 02:44:21;;;;;;;19.25;13.18;;;4.40;99.90;;;;;;5121323;27;20103;-57
2022/01/09 02:49:47;;;;;;;17.77;9.77;;;4.50;99.90;;;;;;5085393;27;20596;-58
2022/01/09 02:52:27;;;;;;;17.70;9.20;;;4.50;99.90;;;;;;5116638;27;20486;-59
2022/01/09 02:55:12;;;;;;;15.07;9.52;;;4.60;99.90;;;;;;5106807;27;20040;-58
2022/01/09 02:57:39;;;;;;;19.40;10.02;;;4.70;99.90;;;;;;5094578;27;20573;-59
2022/01/09 03:00:18;;;;;;;20.38;10.25;;;4.70;99.90;;;;;;5120499;27;20473;-59
2022/01/09 03:02:43;;;;;;;22.42;9.80;;;4.70;99.90;;;;;;5099392;27;20063;-58
2022/01/09 03:05:10;;;;;;;19.83;7.38;;;4.70;99.90;;;;;;5119563;27;20160;-58
2022/01/09 03:07:37;;;;;;;19.27;6.30;;;4.80;99.90;;;;;;5124885;27;20076;-58
2022/01/09 03:10:04;;;;;;;15.93;6.22;;;4.80;99.90;;;;;;5119994;27;21220;-57
2022/01/09 03:12:30;;;;;;;19.38;5.90;;;4.90;99.90;;;;;;5091627;27;20516;-57
2022/01/09 03:14:56;;;;;;;23.63;7.57;;;4.90;99.90;;;;;;5125403;27;20050;-58
2022/01/09 03:17:22;;;;;;;21.73;7.90;;;5.00;99.90;;;;;;5126098;27;20459;-59
2022/01/09 03:19:48;;;;;;;20.25;7.75;;;5.00;99.90;;;;;;5125783;27;20047;-58
2022/01/09 03:22:13;;;;;;;22.02;7.82;;;5.00;99.90;;;;;;5113324;27;20114;-58
2022/01/09 03:24:39;;;;;;;26.85;8.93;;;5.00;99.90;;;;;;5124488;27;20527;-59
2022/01/09 03:27:05;;;;;;;28.10;8.43;;;5.00;99.90;;;;;;5111684;27;20047;-59
2022/01/09 03:29:31;;;;;;;31.40;7.45;;;5.00;99.90;;;;;;5125166;27;20837;-59
2022/01/09 03:31:57;;;;;;;30.35;6.75;;;5.10;99.90;;;;;;5108872;27;20121;-59
2022/01/09 03:34:23;;;;;;;26.00;6.35;;;5.10;99.90;;;;;;5125630;27;20103;-58
2022/01/09 03:36:49;;;;;;;29.05;5.35;;;5.20;99.90;;;;;;5124977;27;20047;-57
2022/01/09 03:39:15;;;;;;;43.22;5.70;;;5.10;99.90;;;;;;5126495;27;20030;-57
2022/01/09 03:41:41;;;;;;;42.97;6.28;;;5.10;99.90;;;;;;5125176;27;20092;-58
2022/01/09 03:44:06;;;;;;;33.47;5.38;;;5.20;99.90;;;;;;5124775;27;20091;-58
2022/01/09 03:46:32;;;;;;;36.25;6.25;;;5.20;99.90;;;;;;5094531;27;20077;-57
2022/01/09 03:48:58;;;;;;;37.53;6.38;;;5.30;99.90;;;;;;5124252;27;20043;-58
2022/01/09 03:51:26;;;;;;;31.63;4.88;;;5.20;99.90;;;;;;5127822;27;20035;-58
2022/01/09 03:53:52;;;;;;;46.17;6.13;;;5.30;99.90;;;;;;5127063;27;20413;-58
2022/01/09 03:56:18;;;;;;;41.38;6.03;;;5.30;99.90;;;;;;5124260;27;20043;-57
2022/01/09 03:58:43;;;;;;;47.25;5.75;;;5.30;99.90;;;;;;5125513;27;20114;-58
2022/01/09 04:01:09;;;;;;;54.75;5.75;;;5.30;99.90;;;;;;5125047;27;20162;-58
2022/01/09 04:03:36;;;;;;;56.30;7.30;;;5.30;99.90;;;;;;5124378;27;20055;-59
2022/01/09 04:06:02;;;;;;;54.20;7.47;;;5.40;99.90;;;;;;5118114;27;20145;-58
2022/01/09 04:08:28;;;;;;;53.50;7.35;;;5.40;99.90;;;;;;5126268;27;20043;-59
2022/01/09 04:10:55;;;;;;;65.03;8.27;;;5.40;99.90;;;;;;5104562;27;20438;-58
2022/01/09 04:13:21;;;;;;;66.93;7.38;;;5.50;99.90;;;;;;5119035;27;20496;-58
2022/01/09 04:15:49;;;;;;;65.80;7.57;;;5.50;99.90;;;;;;5126912;27;20099;-57
2022/01/09 04:18:19;;;;;;;61.97;6.95;;;5.50;99.90;;;;;;5123683;27;20074;-59
2022/01/09 04:20:46;;;;;;;53.35;6.57;;;5.60;99.90;;;;;;5118039;27;20127;-57
2022/01/09 04:23:12;;;;;;;62.95;7.88;;;5.60;99.90;;;;;;5088904;27;20114;-59
2022/01/09 04:25:39;;;;;;;52.35;6.80;;;5.70;99.90;;;;;;5107460;27;20154;-58
2022/01/09 04:28:05;;;;;;;45.40;6.40;;;5.60;99.90;;;;;;5112112;27;20332;-59
2022/01/09 04:30:31;;;;;;;48.88;6.75;;;5.70;99.90;;;;;;5119729;27;20496;-57
2022/01/09 04:32:57;;;;;;;38.30;5.82;;;5.70;99.90;;;;;;5095750;27;20162;-57
2022/01/09 04:35:23;;;;;;;48.33;6.20;;;5.70;99.90;;;;;;5128581;27;20041;-58
2022/01/09 04:37:50;;;;;;;39.40;6.05;;;5.70;99.90;;;;;;5130198;27;20103;-57
2022/01/09 04:40:18;;;;;;;40.35;6.63;;;5.70;99.90;;;;;;5124697;27;20047;-58
2022/01/09 04:42:47;;;;;;;52.25;7.60;;;5.70;99.90;;;;;;5107976;27;20100;-58
2022/01/09 04:45:15;;;;;;;48.20;6.30;;;5.70;99.90;;;;;;5109611;27;20057;-58
2022/01/09 04:47:45;;;;;;;45.47;6.38;;;5.70;99.90;;;;;;5110960;27;20108;-58
2022/01/09 04:50:16;;;;;;;41.90;7.10;;;5.70;99.90;;;;;;5126496;27;20082;-59
2022/01/09 04:52:43;;;;;;;46.80;6.55;;;5.80;99.90;;;;;;5125867;27;20425;-58
2022/01/09 04:55:09;;;;;;;41.67;6.57;;;5.80;99.90;;;;;;5127289;27;20047;-56
2022/01/09 04:57:34;;;;;;;63.97;7.57;;;5.80;99.90;;;;;;5129190;27;20099;-58
2022/01/09 05:00:00;;;;;;;44.42;6.03;;;5.70;99.90;;;;;;5120518;27;20039;-58
2022/01/09 05:02:26;;;;;;;50.78;6.78;;;5.70;99.90;;;;;;5125665;27;20045;-59
2022/01/09 05:04:52;;;;;;;42.58;5.15;;;5.80;99.90;;;;;;5125001;27;20031;-59
2022/01/09 05:07:18;;;;;;;37.58;5.40;;;5.80;99.90;;;;;;5125611;27;20047;-59
2022/01/09 05:09:43;;;;;;;36.03;5.05;;;5.80;99.90;;;;;;5125185;27;20041;-58
2022/01/09 05:12:09;;;;;;;36.70;5.65;;;5.80;99.90;;;;;;5124077;27;20043;-59
2022/01/09 05:14:35;;;;;;;46.15;5.35;;;5.80;99.90;;;;;;5124784;27;20079;-59
2022/01/09 05:17:01;;;;;;;45.00;6.05;;;5.80;99.90;;;;;;5123818;27;20657;-56
2022/01/09 05:19:32;;;;;;;42.45;5.85;;;5.80;99.90;;;;;;5125758;27;20047;-57
2022/01/09 05:21:58;;;;;;;37.58;4.68;;;5.80;99.90;;;;;;5130215;27;20042;-58
2022/01/09 05:24:24;;;;;;;37.10;5.35;;;5.70;99.90;;;;;;5106874;27;20043;-59
2022/01/09 05:26:50;;;;;;;37.80;5.22;;;5.70;99.90;;;;;;5119419;27;20050;-58
2022/01/09 05:29:15;;;;;;;41.70;5.88;;;5.70;99.90;;;;;;5125292;27;20034;-58
2022/01/09 05:31:43;;;;;;;33.67;5.18;;;5.80;99.90;;;;;;5106274;27;20049;-58
2022/01/09 05:34:09;;;;;;;34.05;5.60;;;5.70;99.90;;;;;;5125896;27;20047;-58
2022/01/09 05:36:36;;;;;;;31.52;4.95;;;5.70;99.90;;;;;;5122608;27;20258;-57
2022/01/09 05:39:02;;;;;;;34.30;4.55;;;5.70;99.90;;;;;;5126213;27;20043;-58
2022/01/09 05:41:29;;;;;;;34.53;4.65;;;5.70;99.90;;;;;;5094799;27;20050;-56
2022/01/09 05:43:55;;;;;;;29.10;4.55;;;5.70;99.90;;;;;;5095554;27;20039;-57
2022/01/09 05:46:20;;;;;;;36.97;4.95;;;5.60;99.90;;;;;;5124852;27;20689;-57
2022/01/09 05:48:46;;;;;;;36.50;4.50;;;5.70;99.90;;;;;;5124986;27;20367;-58
2022/01/09 05:51:12;;;;;;;38.17;5.15;;;5.70;99.90;;;;;;5127955;27;20078;-59
2022/01/09 05:53:38;;;;;;;27.95;4.82;;;5.60;99.90;;;;;;5127853;27;20052;-59
2022/01/09 05:56:04;;;;;;;26.08;4.47;;;5.60;99.90;;;;;;5126859;27;20413;-57
2022/01/09 05:58:30;;;;;;;36.00;5.13;;;5.60;99.90;;;;;;5125838;27;20042;-58
2022/01/09 06:00:56;;;;;;;35.53;4.50;;;5.60;99.90;;;;;;5120956;27;20039;-59
2022/01/09 06:03:22;;;;;;;39.30;4.78;;;5.60;99.90;;;;;;5124136;27;20043;-56
2022/01/09 06:05:47;;;;;;;36.20;4.68;;;5.60;99.90;;;;;;5092280;27;20062;-56
2022/01/09 06:08:13;;;;;;;33.40;5.10;;;5.60;99.90;;;;;;5124259;27;20031;-58
2022/01/09 06:10:39;;;;;;;33.65;4.55;;;5.50;99.90;;;;;;5117185;27;20101;-58
2022/01/09 06:13:05;;;;;;;33.80;4.90;;;5.50;99.90;;;;;;5113841;27;20035;-58
2022/01/09 06:15:31;;;;;;;30.30;4.20;;;5.50;99.90;;;;;;5126123;27;20039;-58
2022/01/09 06:17:56;;;;;;;30.88;5.20;;;5.50;99.90;;;;;;5111583;27;20503;-58
2022/01/09 06:20:22;;;;;;;38.05;4.55;;;5.50;99.90;;;;;;5122846;27;20035;-58
2022/01/09 06:22:48;;;;;;;28.08;5.10;;;5.50;99.90;;;;;;5122633;27;20042;-59
2022/01/09 06:25:15;;;;;;;24.17;4.03;;;5.60;99.90;;;;;;5123679;27;20073;-59
2022/01/09 06:27:42;;;;;;;31.63;4.93;;;5.50;99.90;;;;;;5125564;27;20078;-59
2022/01/09 06:30:09;;;;;;;27.42;3.90;;;5.50;99.90;;;;;;5122233;27;20112;-58
2022/01/09 06:32:36;;;;;;;25.83;4.10;;;5.50;99.90;;;;;;5107113;27;20046;-58
2022/01/09 06:35:03;;;;;;;31.10;4.50;;;5.50;99.90;;;;;;5099256;27;20088;-57
2022/01/09 06:37:29;;;;;;;35.58;4.72;;;5.50;99.90;;;;;;5123336;27;20045;-56
2022/01/09 06:39:55;;;;;;;26.20;4.05;;;5.50;99.90;;;;;;5119850;27;20051;-57
2022/01/09 06:42:21;;;;;;;30.20;5.13;;;5.50;99.90;;;;;;5119737;27;20074;-57
2022/01/09 06:44:47;;;;;;;32.75;4.35;;;5.50;99.90;;;;;;5124336;27;20497;-58
2022/01/09 06:47:12;;;;;;;24.15;3.60;;;5.40;99.90;;;;;;5130061;27;20089;-58
2022/01/09 06:49:38;;;;;;;25.08;4.07;;;5.40;99.90;;;;;;5124608;27;20360;-58
2022/01/09 06:52:04;;;;;;;26.02;4.20;;;5.40;99.90;;;;;;5125151;27;20050;-58
2022/01/09 06:54:30;;;;;;;28.42;3.72;;;5.40;99.90;;;;;;5097659;27;20043;-59
2022/01/09 06:56:56;;;;;;;35.72;4.60;;;5.40;99.90;;;;;;5124736;27;20043;-58
2022/01/09 06:59:22;;;;;;;31.50;4.63;;;5.40;99.90;;;;;;5094064;27;20081;-57
2022/01/09 07:01:48;;;;;;;26.45;4.55;;;5.40;99.90;;;;;;5108011;27;22257;-57
2022/01/09 07:04:14;;;;;;;24.42;4.22;;;5.40;99.90;;;;;;5108446;27;20044;-57
2022/01/09 07:06:39;;;;;;;24.30;3.60;;;5.40;99.90;;;;;;5111339;27;20051;-59
2022/01/09 07:09:05;;;;;;;31.25;3.95;;;5.40;99.90;;;;;;5116700;27;20665;-58
2022/01/09 07:11:31;;;;;;;28.42;4.28;;;5.40;99.90;;;;;;5112543;27;20401;-57
2022/01/09 07:13:57;;;;;;;24.30;3.35;;;5.40;99.90;;;;;;5096465;27;20507;-58
2022/01/09 07:16:23;;;;;;;24.10;3.75;;;5.40;99.90;;;;;;5115751;27;20042;-58
2022/01/09 07:18:49;;;;;;;23.42;4.57;;;5.40;99.90;;;;;;5094154;27;20136;-58
2022/01/09 07:21:14;;;;;;;26.73;3.55;;;5.40;99.90;;;;;;5114824;27;20769;-58
2022/01/09 07:23:40;;;;;;;27.90;4.60;;;5.40;99.90;;;;;;5110627;27;20050;-59
2022/01/09 07:26:06;;;;;;;23.63;3.90;;;5.40;99.90;;;;;;5114762;27;20058;-58
2022/01/09 07:28:32;;;;;;;21.38;3.55;;;5.30;99.90;;;;;;5115520;27;20043;-57
2022/01/09 07:30:58;;;;;;;28.42;3.42;;;5.30;99.90;;;;;;5094734;27;20053;-57
2022/01/09 07:33:24;;;;;;;26.50;4.00;;;5.30;99.90;;;;;;5113000;27;20055;-58
2022/01/09 07:35:50;;;;;;;25.48;3.67;;;5.30;99.90;;;;;;5118838;27;20118;-59
2022/01/09 07:38:16;;;;;;;18.70;3.22;;;5.30;99.90;;;;;;5118153;27;20115;-57
2022/01/09 07:40:41;;;;;;;22.13;4.10;;;5.40;99.90;;;;;;5110981;27;20058;-59
2022/01/09 07:43:08;;;;;;;22.98;4.05;;;5.30;99.90;;;;;;5112783;27;20039;-57
2022/01/09 07:45:33;;;;;;;25.10;3.72;;;5.30;99.90;;;;;;5114279;27;20031;-58
2022/01/09 07:48:00;;;;;;;21.02;4.00;;;5.20;99.90;;;;;;5093371;27;20039;-58
2022/01/09 07:50:27;;;;;;;26.50;3.30;;;5.20;99.90;;;;;;5098543;27;20047;-59
2022/01/09 07:52:54;;;;;;;27.60;3.80;;;5.20;99.90;;;;;;5108256;27;20046;-59
2022/01/09 07:55:22;;;;;;;25.45;4.25;;;5.20;99.90;;;;;;5110384;27;20496;-59
2022/01/09 07:57:49;;;;;;;33.38;4.15;;;5.10;99.90;;;;;;5126831;27;20125;-59
2022/01/09 08:00:16;;;;;;;18.30;3.33;;;5.10;99.90;;;;;;5115911;27;20036;-58
2022/01/09 08:02:42;;;;;;;17.02;3.25;;;5.10;99.90;;;;;;5115283;27;20047;-59
2022/01/09 08:05:10;;;;;;;33.20;4.07;;;5.10;99.90;;;;;;5107494;27;20134;-58
2022/01/09 08:07:36;;;;;;;27.17;4.05;;;5.00;99.90;;;;;;5121890;27;20036;-58
2022/01/09 08:10:02;;;;;;;20.23;3.63;;;5.10;99.90;;;;;;5121453;27;20138;-59
2022/01/09 08:12:28;;;;;;;21.35;3.40;;;5.00;99.90;;;;;;5119435;27;20498;-58
2022/01/09 08:14:54;;;;;;;28.38;3.63;;;5.00;99.90;;;;;;5128298;27;20049;-59
2022/01/09 08:17:19;;;;;;;29.17;4.13;;;5.00;99.90;;;;;;5113501;27;20044;-58
2022/01/09 08:19:45;;;;;;;24.88;3.25;;;5.00;99.90;;;;;;5127360;27;20401;-57
2022/01/09 08:22:11;;;;;;;26.08;4.10;;;5.00;99.90;;;;;;5124023;27;20552;-58
2022/01/09 08:24:39;;;;;;;27.67;3.67;;;4.90;99.90;;;;;;5126266;27;20272;-56
2022/01/09 08:27:05;;;;;;;24.75;3.65;;;4.90;99.90;;;;;;5121478;27;20133;-58
2022/01/09 08:29:31;;;;;;;17.23;3.42;;;4.90;99.90;;;;;;5120363;27;20095;-57
2022/01/09 08:31:57;;;;;;;25.00;3.72;;;4.90;99.90;;;;;;5120476;27;20051;-57
2022/01/09 08:34:23;;;;;;;20.40;3.67;;;4.90;99.90;;;;;;5126746;27;20155;-58
2022/01/09 08:36:49;;;;;;;17.48;3.28;;;4.90;99.90;;;;;;5131519;27;20062;-58
2022/01/09 08:39:14;;;;;;;17.92;3.08;;;5.00;99.90;;;;;;5092729;27;20408;-58
2022/01/09 08:41:40;;;;;;;14.68;2.70;;;4.90;99.90;;;;;;5123264;27;20046;-58
2022/01/09 08:44:07;;;;;;;19.05;2.67;;;4.90;99.90;;;;;;5129766;27;20541;-59
2022/01/09 08:46:34;;;;;;;17.15;3.08;;;4.90;99.90;;;;;;5128615;27;20039;-59
2022/01/09 08:49:01;;;;;;;19.27;3.30;;;4.90;99.90;;;;;;5126659;27;20051;-58
2022/01/09 08:51:28;;;;;;;21.77;2.90;;;4.90;99.90;;;;;;5106767;27;20123;-57
2022/01/09 08:53:54;;;;;;;16.58;3.05;;;4.90;99.90;;;;;;5093567;27;20169;-58
2022/01/09 08:56:22;;;;;;;13.70;3.20;;;4.90;99.90;;;;;;5093970;27;20092;-58
2022/01/09 08:58:49;;;;;;;23.08;3.20;;;4.90;99.90;;;;;;5115741;27;20425;-57
2022/01/09 09:01:15;;;;;;;19.65;3.10;;;4.90;99.90;;;;;;5115757;27;20047;-58
2022/01/09 09:03:41;;;;;;;17.13;2.90;;;4.90;99.90;;;;;;5105819;27;20465;-57
2022/01/09 09:06:12;;;;;;;15.63;3.40;;;4.90;99.90;;;;;;5127994;27;20500;-59
2022/01/09 09:08:40;;;;;;;20.30;2.97;;;4.90;99.90;;;;;;5127289;27;20043;-59
2022/01/09 09:11:07;;;;;;;20.38;3.53;;;4.90;99.90;;;;;;5116121;27;20055;-57
2022/01/09 09:13:34;;;;;;;19.08;2.85;;;4.90;99.90;;;;;;5126678;27;20045;-59
2022/01/09 09:16:00;;;;;;;16.95;2.92;;;4.90;99.90;;;;;;5105601;27;20046;-59
2022/01/09 09:18:25;;;;;;;17.80;2.97;;;4.90;99.90;;;;;;5125265;27;20050;-58
2022/01/09 09:20:52;;;;;;;18.65;3.20;;;5.00;99.90;;;;;;5117646;27;20117;-58
2022/01/09 09:23:17;;;;;;;21.30;2.92;;;5.00;99.90;;;;;;5100132;27;20561;-59
2022/01/09 09:25:43;;;;;;;14.13;2.97;;;5.00;99.90;;;;;;5121374;27;20049;-58
2022/01/09 09:28:09;;;;;;;16.33;2.78;;;5.00;99.90;;;;;;5117852;27;20039;-57
2022/01/09 09:30:35;;;;;;;16.80;2.92;;;5.10;99.90;;;;;;5114546;27;20046;-58
2022/01/09 09:33:02;;;;;;;16.55;2.78;;;5.10;99.90;;;;;;5118409;27;20548;-58
2022/01/09 09:35:28;;;;;;;20.77;3.08;;;5.10;99.90;;;;;;5119764;27;20500;-58
2022/01/09 09:37:54;;;;;;;19.65;2.95;;;5.10;99.90;;;;;;5117872;27;20052;-59
2022/01/09 09:40:20;;;;;;;14.57;2.80;;;5.10;99.90;;;;;;5097657;27;20058;-58
2022/01/09 09:42:46;;;;;;;17.33;3.00;;;5.10;99.90;;;;;;5118506;27;20089;-58
2022/01/09 09:45:13;;;;;;;19.25;3.17;;;5.10;99.90;;;;;;5114209;27;20052;-57
2022/01/09 09:47:40;;;;;;;9.98;2.20;;;5.10;99.90;;;;;;5105893;27;20126;-58
2022/01/09 09:50:09;;;;;;;16.55;2.55;;;5.10;99.90;;;;;;5119323;27;20054;-59
2022/01/09 09:52:35;;;;;;;16.83;2.95;;;5.10;99.90;;;;;;5126435;27;20445;-59
2022/01/09 09:55:01;;;;;;;19.27;2.60;;;5.10;99.90;;;;;;5107608;27;20945;-58
2022/01/09 09:57:27;;;;;;;10.23;2.10;;;5.10;99.90;;;;;;5096392;27;20047;-58
2022/01/09 10:00:06;;;;;;;18.63;2.47;;;5.20;99.90;;;;;;5118577;27;20469;-57
2022/01/09 10:02:54;;;;;;;21.10;3.85;;;5.20;99.90;;;;;;5124087;27;20053;-57
2022/01/09 10:05:22;;;;;;;12.25;2.60;;;5.20;99.90;;;;;;5118406;27;20177;-58
2022/01/09 10:07:48;;;;;;;15.35;2.75;;;5.20;99.90;;;;;;5101023;27;20095;-57
2022/01/09 10:10:30;;;;;;;17.80;2.85;;;5.20;99.90;;;;;;5115394;27;20074;-59
2022/01/09 10:13:17;;;;;;;17.38;2.35;;;5.20;99.90;;;;;;5126074;27;20043;-58
2022/01/09 10:15:58;;;;;;;16.67;2.40;;;5.20;99.90;;;;;;5107787;27;20086;-57
2022/01/09 10:18:44;;;;;;;19.70;2.80;;;5.20;99.90;;;;;;5127658;27;20096;-57
2022/01/09 10:21:14;;;;;;;14.50;2.85;;;5.20;99.90;;;;;;5123287;27;20051;-59
2022/01/09 10:24:01;;;;;;;12.98;2.25;;;5.20;99.90;;;;;;5100998;27;20450;-57
2022/01/09 10:26:29;;;;;;;11.95;2.40;;;5.30;99.90;;;;;;5128148;27;20223;-58
2022/01/09 10:28:55;;;;;;;14.93;2.42;;;5.30;99.90;;;;;;5128588;27;20047;-57
2022/01/09 10:31:21;;;;;;;20.38;3.45;;;5.40;99.90;;;;;;5104923;27;20044;-59
2022/01/09 10:34:07;;;;;;;14.82;2.30;;;5.30;99.90;;;;;;5126413;27;20051;-55
2022/01/09 10:36:43;;;;;;;17.77;2.97;;;5.40;99.90;;;;;;5130446;27;20062;-58
2022/01/09 10:39:31;;;;;;;18.65;3.33;;;5.40;99.90;;;;;;5107320;27;20052;-57
2022/01/09 10:42:03;;;;;;;18.45;2.50;;;5.50;99.90;;;;;;5099091;27;20140;-59
2022/01/09 10:44:35;;;;;;;19.70;2.60;;;5.50;99.90;;;;;;5125588;27;20497;-58
2022/01/09 10:47:02;;;;;;;20.00;3.30;;;5.50;99.90;;;;;;5108370;27;20489;-57
2022/01/09 10:49:41;;;;;;;20.92;3.25;;;5.60;99.90;;;;;;5116666;27;20114;-57
2022/01/09 10:52:21;;;;;;;26.33;3.35;;;5.60;99.90;;;;;;5114370;27;20043;-58
2022/01/09 10:54:49;;;;;;;20.02;3.30;;;5.60;99.90;;;;;;5121248;27;20099;-57
2022/01/09 10:57:18;;;;;;;21.45;3.10;;;5.60;99.90;;;;;;5118698;27;20050;-58
2022/01/09 10:59:44;;;;;;;19.40;2.95;;;5.60;99.90;;;;;;5117212;27;20062;-57
2022/01/09 11:02:12;;;;;;;14.65;3.10;;;5.60;99.90;;;;;;5121039;27;20055;-57
2022/01/09 11:04:42;;;;;;;19.67;2.65;;;5.60;99.90;;;;;;5085855;27;20043;-58
2022/01/09 11:07:09;;;;;;;17.60;2.90;;;5.60;99.90;;;;;;5109775;27;20366;-58
2022/01/09 11:09:37;;;;;;;18.10;2.85;;;5.60;99.90;;;;;;5123666;27;20043;-57
2022/01/09 11:12:06;;;;;;;17.33;3.17;;;5.60;99.90;;;;;;5099603;27;20044;-58
2022/01/09 11:14:36;;;;;;;12.25;3.20;;;5.60;99.90;;;;;;5119937;27;20072;-56
2022/01/09 11:17:05;;;;;;;20.45;2.45;;;5.70;99.90;;;;;;5122032;27;20049;-58
2022/01/09 11:19:33;;;;;;;14.18;3.25;;;5.60;99.90;;;;;;5109504;27;20122;-59
2022/01/09 11:22:04;;;;;;;18.92;2.90;;;5.60;99.90;;;;;;5117822;27;20443;-58
2022/01/09 11:25:08;;;;;;;14.27;2.53;;;5.70;99.90;;;;;;5124918;27;20070;-57
2022/01/09 11:27:34;;;;;;;;;;;5.70;99.90;;;;;;5122577;27;20497;-57
2022/01/09 11:30:17;;;;;;;13.00;2.50;;;5.70;99.90;;;;;;5122350;27;20013;-59
2022/01/09 11:33:33;;;;;;;12.93;2.40;;;5.70;99.90;;;;;;5129800;27;20118;-57
2022/01/09 11:36:04;;;;;;;15.93;2.45;;;5.70;99.90;;;;;;5062824;28;20052;-58
2022/01/09 11:38:48;;;;;;;11.95;2.65;;;5.80;99.90;;;;;;5061893;28;20077;-58
2022/01/09 11:41:21;;;;;;;13.63;2.60;;;5.80;99.90;;;;;;5107112;27;20051;-58
2022/01/09 11:44:06;;;;;;;20.85;2.65;;;5.90;99.90;;;;;;5121690;27;20149;-58
2022/01/09 11:46:58;;;;;;;15.43;3.03;;;5.90;99.90;;;;;;5120906;27;20108;-56
2022/01/09 11:49:24;;;;;;;15.32;2.70;;;5.90;99.90;;;;;;5107212;27;20134;-58
2022/01/09 11:51:52;;;;;;;18.10;3.00;;;6.00;99.90;;;;;;5120175;27;20038;-58
2022/01/09 11:54:19;;;;;;;13.90;2.80;;;6.00;99.90;;;;;;5129028;27;20378;-57
2022/01/09 11:57:14;;;;;;;19.85;2.95;;;6.00;99.90;;;;;;5111525;27;20119;-58
2022/01/09 11:59:45;;;;;;;15.48;2.63;;;6.10;99.90;;;;;;5129644;27;20046;-58
2022/01/09 12:02:17;;;;;;;18.65;3.17;;;6.20;99.90;;;;;;5130690;27;20051;-58
2022/01/09 12:04:44;;;;;;;14.88;2.50;;;6.20;99.90;;;;;;5128779;27;20070;-57
2022/01/09 12:07:19;;;;;;;15.48;2.95;;;6.30;99.90;;;;;;5090689;27;20038;-58
2022/01/09 12:09:51;;;;;;;16.73;3.13;;;6.40;99.90;;;;;;5132786;27;20039;-58
2022/01/09 12:12:34;;;;;;;16.60;3.03;;;6.50;99.90;;;;;;5127149;27;20047;-59
2022/01/09 12:15:04;;;;;;;17.48;2.67;;;6.60;99.90;;;;;;5127178;27;20038;-58
2022/01/09 12:17:41;;;;;;;13.60;2.88;;;6.60;99.90;;;;;;5129864;27;20079;-57
2022/01/09 12:20:14;;;;;;;12.95;2.65;;;6.60;99.90;;;;;;5089338;27;20055;-59
2022/01/09 12:22:43;;;;;;;19.95;2.78;;;6.60;99.90;;;;;;5122407;27;20047;-58
2022/01/09 12:25:24;;;;;;;16.58;3.17;;;6.60;99.90;;;;;;5125151;27;20039;-57
2022/01/09 12:27:54;;;;;;;13.35;2.20;;;6.70;99.90;;;;;;5129580;27;20047;-58
2022/01/09 12:30:33;;;;;;;10.05;2.22;;;6.70;99.90;;;;;;5091476;27;20054;-58
2022/01/09 12:33:07;;;;;;;12.63;2.53;;;6.70;99.90;;;;;;5119312;27;20047;-58
2022/01/09 12:35:39;;;;;;;12.95;2.30;;;6.70;99.90;;;;;;5060315;27;20051;-57
2022/01/09 12:38:06;;;;;;;17.77;2.47;;;6.70;99.90;;;;;;5084940;27;20112;-57
2022/01/09 12:40:36;;;;;;;10.05;2.40;;;6.70;99.90;;;;;;5114380;27;20134;-58
2022/01/09 12:43:03;;;;;;;16.27;3.42;;;6.70;99.90;;;;;;5099453;27;20155;-58
2022/01/09 12:45:36;;;;;;;15.13;3.08;;;6.70;99.90;;;;;;5103805;27;20042;-57
2022/01/09 12:48:03;;;;;;;12.85;2.80;;;6.70;99.90;;;;;;5094441;27;20043;-58
2022/01/09 12:50:29;;;;;;;17.58;2.50;;;6.70;99.90;;;;;;5083844;27;20050;-58
2022/01/09 12:53:12;;;;;;;17.92;2.88;;;6.80;99.90;;;;;;5101636;27;20051;-57